sensor_id;sensor_type;location;lat;lon;timestamp;pressure;altitude;pressure_sealevel;temperature;humidity
50349;BME280;36250;48.740;22.174;2022-12-07T00:01:14;100025.50;;;3.22;100.00
50349;BME280;36250;48.740;22.174;2022-12-07T00:03:41;100020.41;;;3.21;100.00
50349;BME280;36250;48.740;22.174;2022-12-07T00:06:09;100029.81;;;3.13;100.00
50349;BME280;36250;48.740;22.174;2022-12-07T00:08:35;100037.97;;;3.10;100.00
50349;BME280;36250;48.740;22.174;2022-12-07T00:11:05;100029.00;;;3.13;100.00
50349;BME280;36250;48.740;22.174;2022-12-07T00:13:32;100031.19;;;3.17;100.00
50349;BME280;36250;48.740;22.174;2022-12-07T00:16:09;100022.19;;;3.20;100.00
50349;BME280;36250;48.740;22.174;2022-12-07T00:18:35;100027.00;;;3.25;100.00
50349;BME280;36250;48.740;22.174;2022-12-07T00:21:02;100020.78;;;3.26;100.00
50349;BME280;36250;48.740;22.174;2022-12-07T00:23:27;100027.69;;;3.27;100.00
50349;BME280;36250;48.740;22.174;2022-12-07T00:25:53;100038.16;;;3.27;100.00
50349;BME280;36250;48.740;22.174;2022-12-07T00:28:18;100033.88;;;3.26;100.00
50349;BME280;36250;48.740;22.174;2022-12-07T00:30:43;100025.50;;;3.22;100.00
50349;BME280;36250;48.740;22.174;2022-12-07T00:33:08;100030.59;;;3.24;100.00
50349;BME280;36250;48.740;22.174;2022-12-07T00:35:34;100034.00;;;3.24;100.00
50349;BME280;36250;48.740;22.174;2022-12-07T00:37:59;100034.47;;;3.19;100.00
50349;BME280;36250;48.740;22.174;2022-12-07T00:40:24;100033.78;;;3.17;100.00
50349;BME280;36250;48.740;22.174;2022-12-07T00:42:50;100044.00;;;3.11;100.00
50349;BME280;36250;48.740;22.174;2022-12-07T00:45:15;100043.50;;;3.07;100.00
50349;BME280;36250;48.740;22.174;2022-12-07T00:47:41;100043.50;;;3.07;100.00
50349;BME280;36250;48.740;22.174;2022-12-07T00:50:08;100044.31;;;3.08;100.00
50349;BME280;36250;48.740;22.174;2022-12-07T00:52:33;100037.56;;;3.05;100.00
50349;BME280;36250;48.740;22.174;2022-12-07T00:54:58;100033.59;;;3.01;100.00
50349;BME280;36250;48.740;22.174;2022-12-07T00:57:23;100032.09;;;2.98;100.00
50349;BME280;36250;48.740;22.174;2022-12-07T00:59:49;100024.25;;;2.98;100.00
50349;BME280;36250;48.740;22.174;2022-12-07T01:02:14;100029.31;;;3.00;100.00
50349;BME280;36250;48.740;22.174;2022-12-07T01:04:40;100026.03;;;2.98;100.00
50349;BME280;36250;48.740;22.174;2022-12-07T01:07:05;100023.56;;;2.96;100.00
50349;BME280;36250;48.740;22.174;2022-12-07T01:09:30;100033.22;;;2.96;100.00
50349;BME280;36250;48.740;22.174;2022-12-07T01:11:55;100035.81;;;2.96;100.00
50349;BME280;36250;48.740;22.174;2022-12-07T01:14:21;100035.31;;;2.92;100.00
50349;BME280;36250;48.740;22.174;2022-12-07T01:16:46;100029.22;;;2.92;100.00
50349;BME280;36250;48.740;22.174;2022-12-07T01:19:11;100037.47;;;2.97;100.00
50349;BME280;36250;48.740;22.174;2022-12-07T01:21:38;100027.97;;;2.96;100.00
50349;BME280;36250;48.740;22.174;2022-12-07T01:24:05;100020.00;;;2.97;100.00
50349;BME280;36250;48.740;22.174;2022-12-07T01:26:31;100024.25;;;2.98;100.00
50349;BME280;36250;48.740;22.174;2022-12-07T01:28:56;100018.19;;;2.98;100.00
50349;BME280;36250;48.740;22.174;2022-12-07T01:31:25;100018.19;;;2.98;100.00
50349;BME280;36250;48.740;22.174;2022-12-07T01:33:53;100012.28;;;2.96;100.00
50349;BME280;36250;48.740;22.174;2022-12-07T01:36:24;100016.16;;;2.92;100.00
50349;BME280;36250;48.740;22.174;2022-12-07T01:38:53;100013.03;;;2.88;100.00
50349;BME280;36250;48.740;22.174;2022-12-07T01:41:22;100016.06;;;2.83;100.00
50349;BME280;36250;48.740;22.174;2022-12-07T01:44:10;100014.41;;;2.82;100.00
50349;BME280;36250;48.740;22.174;2022-12-07T01:46:37;100006.19;;;2.77;100.00
50349;BME280;36250;48.740;22.174;2022-12-07T01:49:04;100015.50;;;2.80;100.00
50349;BME280;36250;48.740;22.174;2022-12-07T01:51:31;100010.16;;;2.81;100.00
50349;BME280;36250;48.740;22.174;2022-12-07T01:53:56;100015.38;;;2.81;100.00
50349;BME280;36250;48.740;22.174;2022-12-07T01:56:24;100015.38;;;2.81;100.00
50349;BME280;36250;48.740;22.174;2022-12-07T01:58:51;100017.56;;;2.86;100.00
50349;BME280;36250;48.740;22.174;2022-12-07T02:01:17;100022.50;;;2.89;100.00
50349;BME280;36250;48.740;22.174;2022-12-07T02:03:44;100026.78;;;2.90;100.00
50349;BME280;36250;48.740;22.174;2022-12-07T02:06:12;100026.91;;;2.88;100.00
50349;BME280;36250;48.740;22.174;2022-12-07T02:08:38;100032.16;;;2.88;100.00
50349;BME280;36250;48.740;22.174;2022-12-07T02:11:05;100037.09;;;2.92;100.00
50349;BME280;36250;48.740;22.174;2022-12-07T02:13:33;100035.31;;;2.92;100.00
50349;BME280;36250;48.740;22.174;2022-12-07T02:21:53;100022.09;;;2.84;100.00
50349;BME280;36250;48.740;22.174;2022-12-07T02:27:22;100012.81;;;2.71;100.00
50349;BME280;36250;48.740;22.174;2022-12-07T02:30:12;100009.97;;;2.55;100.00
50349;BME280;36250;48.740;22.174;2022-12-07T02:35:20;100007.41;;;2.35;100.00
50349;BME280;36250;48.740;22.174;2022-12-07T02:40:32;100016.94;;;2.26;100.00
50349;BME280;36250;48.740;22.174;2022-12-07T02:43:05;100012.69;;;2.25;100.00
50349;BME280;36250;48.740;22.174;2022-12-07T02:45:34;100014.59;;;2.23;100.00
50349;BME280;36250;48.740;22.174;2022-12-07T02:48:02;100003.06;;;2.16;100.00
50349;BME280;36250;48.740;22.174;2022-12-07T02:50:28;100013.78;;;2.13;100.00
50349;BME280;36250;48.740;22.174;2022-12-07T02:52:54;100011.06;;;2.05;100.00
50349;BME280;36250;48.740;22.174;2022-12-07T02:55:24;100007.75;;;2.02;100.00
50349;BME280;36250;48.740;22.174;2022-12-07T02:57:57;100011.91;;;2.05;100.00
50349;BME280;36250;48.740;22.174;2022-12-07T03:00:26;100021.50;;;2.05;100.00
50349;BME280;36250;48.740;22.174;2022-12-07T03:02:58;100022.06;;;2.08;100.00
50349;BME280;36250;48.740;22.174;2022-12-07T03:05:37;100019.28;;;2.10;100.00
50349;BME280;36250;48.740;22.174;2022-12-07T03:11:16;100011.06;;;2.14;100.00
50349;BME280;36250;48.740;22.174;2022-12-07T03:13:50;100006.34;;;2.18;100.00
50349;BME280;36250;48.740;22.174;2022-12-07T03:16:29;100018.84;;;2.24;100.00
50349;BME280;36250;48.740;22.174;2022-12-07T03:19:01;100020.25;;;2.28;100.00
50349;BME280;36250;48.740;22.174;2022-12-07T03:21:33;100024.63;;;2.28;100.00
50349;BME280;36250;48.740;22.174;2022-12-07T03:24:00;100023.13;;;2.25;100.00
50349;BME280;36250;48.740;22.174;2022-12-07T03:26:36;100022.59;;;2.22;100.00
50349;BME280;36250;48.740;22.174;2022-12-07T03:29:07;100029.31;;;2.24;100.00
50349;BME280;36250;48.740;22.174;2022-12-07T03:31:39;100036.22;;;2.25;100.00
50349;BME280;36250;48.740;22.174;2022-12-07T03:34:27;100029.31;;;2.24;100.00
50349;BME280;36250;48.740;22.174;2022-12-07T03:37:03;100030.44;;;2.22;100.00
50349;BME280;36250;48.740;22.174;2022-12-07T03:39:32;100026.56;;;2.26;100.00
50349;BME280;36250;48.740;22.174;2022-12-07T03:41:59;100026.00;;;2.32;100.00
50349;BME280;36250;48.740;22.174;2022-12-07T03:44:26;100026.09;;;2.40;100.00
50349;BME280;36250;48.740;22.174;2022-12-07T03:47:05;100031.22;;;2.42;100.00
50349;BME280;36250;48.740;22.174;2022-12-07T03:52:24;100025.97;;;2.42;100.00
50349;BME280;36250;48.740;22.174;2022-12-07T03:54:56;100029.41;;;2.42;100.00
50349;BME280;36250;48.740;22.174;2022-12-07T03:57:26;100028.44;;;2.43;100.00
50349;BME280;36250;48.740;22.174;2022-12-07T03:59:54;100023.38;;;2.42;100.00
50349;BME280;36250;48.740;22.174;2022-12-07T04:02:21;100014.56;;;2.43;100.00
50349;BME280;36250;48.740;22.174;2022-12-07T04:04:47;100005.75;;;2.44;100.00
50349;BME280;36250;48.740;22.174;2022-12-07T04:07:12;100001.63;;;2.41;100.00
50349;BME280;36250;48.740;22.174;2022-12-07T04:09:38;99999.44;;;2.37;100.00
50349;BME280;36250;48.740;22.174;2022-12-07T04:12:03;99994.34;;;2.35;100.00
50349;BME280;36250;48.740;22.174;2022-12-07T04:14:29;99995.31;;;2.34;100.00
50349;BME280;36250;48.740;22.174;2022-12-07T04:16:56;99992.00;;;2.32;100.00
50349;BME280;36250;48.740;22.174;2022-12-07T04:19:33;99993.66;;;2.33;100.00
50349;BME280;36250;48.740;22.174;2022-12-07T04:22:00;99999.34;;;2.28;100.00
50349;BME280;36250;48.740;22.174;2022-12-07T04:24:27;99997.69;;;2.27;100.00
50349;BME280;36250;48.740;22.174;2022-12-07T04:26:53;100007.97;;;2.29;100.00
50349;BME280;36250;48.740;22.174;2022-12-07T04:29:18;100003.88;;;2.26;100.00
50349;BME280;36250;48.740;22.174;2022-12-07T04:31:44;100005.78;;;2.24;100.00
50349;BME280;36250;48.740;22.174;2022-12-07T04:34:10;100015.13;;;2.27;100.00
50349;BME280;36250;48.740;22.174;2022-12-07T04:36:37;100012.41;;;2.28;100.00
50349;BME280;36250;48.740;22.174;2022-12-07T04:39:04;100022.00;;;2.28;100.00
50349;BME280;36250;48.740;22.174;2022-12-07T04:41:29;100013.22;;;2.29;100.00
50349;BME280;36250;48.740;22.174;2022-12-07T04:44:00;100009.50;;;2.31;100.00
50349;BME280;36250;48.740;22.174;2022-12-07T04:46:27;100012.25;;;2.30;100.00
50349;BME280;36250;48.740;22.174;2022-12-07T04:48:53;100008.28;;;2.26;100.00
50349;BME280;36250;48.740;22.174;2022-12-07T04:51:22;100011.72;;;2.26;100.00
50349;BME280;36250;48.740;22.174;2022-12-07T04:53:47;100004.56;;;2.28;100.00
50349;BME280;36250;48.740;22.174;2022-12-07T04:56:14;100002.22;;;2.25;100.00
50349;BME280;36250;48.740;22.174;2022-12-07T04:58:40;99995.47;;;2.23;100.00
50349;BME280;36250;48.740;22.174;2022-12-07T05:01:06;99992.03;;;2.22;100.00
50349;BME280;36250;48.740;22.174;2022-12-07T05:03:31;99993.84;;;2.22;100.00
50349;BME280;36250;48.740;22.174;2022-12-07T05:05:57;99988.72;;;2.20;100.00
50349;BME280;36250;48.740;22.174;2022-12-07T05:08:22;99985.03;;;2.23;100.00
50349;BME280;36250;48.740;22.174;2022-12-07T05:10:49;99981.31;;;2.25;100.00
50349;BME280;36250;48.740;22.174;2022-12-07T05:13:14;99973.31;;;2.27;100.00
50349;BME280;36250;48.740;22.174;2022-12-07T05:15:40;99976.22;;;2.24;100.00
50349;BME280;36250;48.740;22.174;2022-12-07T05:18:05;99982.41;;;2.23;100.00
50349;BME280;36250;48.740;22.174;2022-12-07T05:20:30;99978.28;;;2.20;100.00
50349;BME280;36250;48.740;22.174;2022-12-07T05:22:56;99988.59;;;2.22;100.00
50349;BME280;36250;48.740;22.174;2022-12-07T05:25:23;99988.06;;;2.18;100.00
50349;BME280;36250;48.740;22.174;2022-12-07T05:27:49;99990.38;;;2.21;100.00
50349;BME280;36250;48.740;22.174;2022-12-07T05:30:14;99993.00;;;2.21;100.00
50349;BME280;36250;48.740;22.174;2022-12-07T05:32:39;99986.56;;;2.25;100.00
50349;BME280;36250;48.740;22.174;2022-12-07T05:35:05;99985.59;;;2.26;100.00
50349;BME280;36250;48.740;22.174;2022-12-07T05:37:30;99979.66;;;2.24;100.00
50349;BME280;36250;48.740;22.174;2022-12-07T05:39:56;99976.34;;;2.22;100.00
50349;BME280;36250;48.740;22.174;2022-12-07T05:42:21;99981.44;;;2.24;100.00
50349;BME280;36250;48.740;22.174;2022-12-07T05:44:47;99981.56;;;2.22;100.00
50349;BME280;36250;48.740;22.174;2022-12-07T05:47:14;99985.16;;;2.21;100.00
50349;BME280;36250;48.740;22.174;2022-12-07T05:49:39;99975.66;;;2.20;100.00
50349;BME280;36250;48.740;22.174;2022-12-07T05:52:05;99968.94;;;2.17;100.00
50349;BME280;36250;48.740;22.174;2022-12-07T05:54:31;99972.66;;;2.15;100.00
50349;BME280;36250;48.740;22.174;2022-12-07T05:56:56;99978.03;;;2.13;100.00
50349;BME280;36250;48.740;22.174;2022-12-07T05:59:21;99975.84;;;2.09;100.00
50349;BME280;36250;48.740;22.174;2022-12-07T06:01:59;99975.16;;;2.07;100.00
50349;BME280;36250;48.740;22.174;2022-12-07T06:04:27;99971.88;;;2.05;100.00
50349;BME280;36250;48.740;22.174;2022-12-07T06:06:53;99970.78;;;2.07;100.00
50349;BME280;36250;48.740;22.174;2022-12-07T06:09:20;99974.47;;;2.05;100.00
50349;BME280;36250;48.740;22.174;2022-12-07T06:11:46;99981.22;;;2.07;100.00
50349;BME280;36250;48.740;22.174;2022-12-07T06:14:30;99977.50;;;2.10;100.00
50349;BME280;36250;48.740;22.174;2022-12-07T06:16:56;99979.41;;;2.08;100.00
50349;BME280;36250;48.740;22.174;2022-12-07T06:19:21;99979.13;;;2.11;100.00
50349;BME280;36250;48.740;22.174;2022-12-07T06:21:47;99980.78;;;2.12;100.00
50349;BME280;36250;48.740;22.174;2022-12-07T06:24:13;99989.19;;;2.15;100.00
50349;BME280;36250;48.740;22.174;2022-12-07T06:26:39;99996.19;;;2.15;100.00
50349;BME280;36250;48.740;22.174;2022-12-07T06:29:05;100004.69;;;2.17;100.00
50349;BME280;36250;48.740;22.174;2022-12-07T06:31:30;100008.84;;;2.10;100.00
50349;BME280;36250;48.740;22.174;2022-12-07T06:34:00;100005.03;;;2.04;100.00
50349;BME280;36250;48.740;22.174;2022-12-07T06:36:26;100013.25;;;1.99;100.00
50349;BME280;36250;48.740;22.174;2022-12-07T06:38:52;100012.72;;;1.96;100.00
50349;BME280;36250;48.740;22.174;2022-12-07T06:41:18;100019.19;;;1.92;100.00
50349;BME280;36250;48.740;22.174;2022-12-07T06:43:43;100015.06;;;1.89;100.00
50349;BME280;36250;48.740;22.174;2022-12-07T06:46:08;100020.41;;;1.87;100.00
50349;BME280;36250;48.740;22.174;2022-12-07T06:48:34;100011.78;;;1.87;100.00
50349;BME280;36250;48.740;22.174;2022-12-07T06:50:59;100010.94;;;1.77;100.00
50349;BME280;36250;48.740;22.174;2022-12-07T06:53:25;100011.09;;;1.75;100.00
50349;BME280;36250;48.740;22.174;2022-12-07T06:55:50;100014.78;;;1.72;100.00
50349;BME280;36250;48.740;22.174;2022-12-07T06:58:16;100016.88;;;1.69;100.00
50349;BME280;36250;48.740;22.174;2022-12-07T07:00:43;100021.81;;;1.72;100.00
50349;BME280;36250;48.740;22.174;2022-12-07T07:03:08;100024.13;;;1.65;100.00
50349;BME280;36250;48.740;22.174;2022-12-07T07:05:34;100035.66;;;1.63;100.00
50349;BME280;36250;48.740;22.174;2022-12-07T07:07:59;100035.41;;;1.66;100.00
50349;BME280;36250;48.740;22.174;2022-12-07T07:10:24;100035.25;;;1.67;100.00
50349;BME280;36250;48.740;22.174;2022-12-07T07:12:50;100037.75;;;1.69;100.00
50349;BME280;36250;48.740;22.174;2022-12-07T07:15:15;100034.16;;;1.60;100.00
50349;BME280;36250;48.740;22.174;2022-12-07T07:17:40;100036.38;;;1.55;100.00
50349;BME280;36250;48.740;22.174;2022-12-07T07:20:06;100036.09;;;1.58;100.00
50349;BME280;36250;48.740;22.174;2022-12-07T07:22:31;100033.19;;;1.61;100.00
50349;BME280;36250;48.740;22.174;2022-12-07T07:24:57;100024.28;;;1.64;100.00
50349;BME280;36250;48.740;22.174;2022-12-07T07:27:22;100028.94;;;1.60;100.00
50349;BME280;36250;48.740;22.174;2022-12-07T07:29:47;100027.84;;;1.53;100.00
50349;BME280;36250;48.740;22.174;2022-12-07T07:32:13;100029.19;;;1.47;100.00
50349;BME280;36250;48.740;22.174;2022-12-07T07:34:39;100020.28;;;1.40;100.00
50349;BME280;36250;48.740;22.174;2022-12-07T07:37:04;100017.66;;;1.40;100.00
50349;BME280;36250;48.740;22.174;2022-12-07T07:39:30;100021.06;;;1.40;100.00
50349;BME280;36250;48.740;22.174;2022-12-07T07:41:55;100010.41;;;1.43;100.00
50349;BME280;36250;48.740;22.174;2022-12-07T07:44:20;100020.13;;;1.41;100.00
50349;BME280;36250;48.740;22.174;2022-12-07T07:46:46;100012.56;;;1.38;100.00
50349;BME280;36250;48.740;22.174;2022-12-07T07:49:11;100017.94;;;1.37;100.00
50349;BME280;36250;48.740;22.174;2022-12-07T07:51:36;100012.03;;;1.35;100.00
50349;BME280;36250;48.740;22.174;2022-12-07T07:54:02;100010.38;;;1.34;100.00
50349;BME280;36250;48.740;22.174;2022-12-07T07:56:28;100015.03;;;1.30;100.00
50349;BME280;36250;48.740;22.174;2022-12-07T07:58:55;100014.22;;;1.29;100.00
50349;BME280;36250;48.740;22.174;2022-12-07T08:01:20;100016.69;;;1.31;100.00
50349;BME280;36250;48.740;22.174;2022-12-07T08:03:46;100017.63;;;1.30;100.00
50349;BME280;36250;48.740;22.174;2022-12-07T08:06:11;100010.50;;;1.32;100.00
50349;BME280;36250;48.740;22.174;2022-12-07T08:08:37;100019.00;;;1.34;100.00
50349;BME280;36250;48.740;22.174;2022-12-07T08:11:06;100015.44;;;1.35;100.00
50349;BME280;36250;48.740;22.174;2022-12-07T08:13:32;100009.94;;;1.38;100.00
50349;BME280;36250;48.740;22.174;2022-12-07T08:15:58;100020.69;;;1.45;100.00
50349;BME280;36250;48.740;22.174;2022-12-07T08:18:23;100021.25;;;1.49;100.00
50349;BME280;36250;48.740;22.174;2022-12-07T08:20:49;100021.25;;;1.49;100.00
50349;BME280;36250;48.740;22.174;2022-12-07T08:23:14;100016.03;;;1.49;100.00
50349;BME280;36250;48.740;22.174;2022-12-07T08:25:40;100026.47;;;1.49;100.00
50349;BME280;36250;48.740;22.174;2022-12-07T08:28:06;100013.84;;;1.54;100.00
50349;BME280;36250;48.740;22.174;2022-12-07T08:30:31;100018.38;;;1.52;100.00
50349;BME280;36250;48.740;22.174;2022-12-07T08:32:57;100023.59;;;1.52;100.00
50349;BME280;36250;48.740;22.174;2022-12-07T08:35:23;100026.88;;;1.54;100.00
50349;BME280;36250;48.740;22.174;2022-12-07T08:37:48;100027.41;;;1.57;100.00
50349;BME280;36250;48.740;22.174;2022-12-07T08:40:14;100014.78;;;1.63;100.00
50349;BME280;36250;48.740;22.174;2022-12-07T08:42:42;100025.22;;;1.63;100.00
50349;BME280;36250;48.740;22.174;2022-12-07T08:45:11;100020.44;;;1.68;100.00
50349;BME280;36250;48.740;22.174;2022-12-07T08:47:40;100026.63;;;1.67;100.00
50349;BME280;36250;48.740;22.174;2022-12-07T08:50:07;100025.09;;;1.64;100.00
50349;BME280;36250;48.740;22.174;2022-12-07T08:52:35;100025.94;;;1.65;100.00
50349;BME280;36250;48.740;22.174;2022-12-07T08:55:02;100021.78;;;1.62;100.00
50349;BME280;36250;48.740;22.174;2022-12-07T08:57:28;100029.75;;;1.61;100.00
50349;BME280;36250;48.740;22.174;2022-12-07T08:59:54;100026.06;;;1.63;100.00
50349;BME280;36250;48.740;22.174;2022-12-07T09:02:20;100024.81;;;1.67;100.00
50349;BME280;36250;48.740;22.174;2022-12-07T09:04:46;100025.09;;;1.64;100.00
50349;BME280;36250;48.740;22.174;2022-12-07T09:07:11;100013.97;;;1.62;100.00
50349;BME280;36250;48.740;22.174;2022-12-07T09:09:36;100014.38;;;1.57;100.00
50349;BME280;36250;48.740;22.174;2022-12-07T09:12:02;100009.56;;;1.53;100.00
50349;BME280;36250;48.740;22.174;2022-12-07T09:14:28;100016.72;;;1.51;100.00
50349;BME280;36250;48.740;22.174;2022-12-07T09:16:53;100013.41;;;1.49;100.00
50349;BME280;36250;48.740;22.174;2022-12-07T09:19:19;100008.88;;;1.51;100.00
50349;BME280;36250;48.740;22.174;2022-12-07T09:21:44;100012.56;;;1.48;100.00
50349;BME280;36250;48.740;22.174;2022-12-07T09:24:11;100002.81;;;1.50;100.00
50349;BME280;36250;48.740;22.174;2022-12-07T09:26:37;100007.22;;;1.50;100.00
50349;BME280;36250;48.740;22.174;2022-12-07T09:29:04;100004.63;;;1.50;100.00
50349;BME280;36250;48.740;22.174;2022-12-07T09:31:29;100003.94;;;1.48;100.00
50349;BME280;36250;48.740;22.174;2022-12-07T09:33:56;100002.13;;;1.48;100.00
50349;BME280;36250;48.740;22.174;2022-12-07T09:36:22;100006.00;;;1.54;100.00
50349;BME280;36250;48.740;22.174;2022-12-07T09:38:47;100002.28;;;1.56;100.00
50349;BME280;36250;48.740;22.174;2022-12-07T09:41:12;99999.66;;;1.56;100.00
50349;BME280;36250;48.740;22.174;2022-12-07T09:43:39;100002.44;;;1.55;100.00
50349;BME280;36250;48.740;22.174;2022-12-07T09:46:05;99991.97;;;1.55;100.00
50349;BME280;36250;48.740;22.174;2022-12-07T09:48:36;99992.50;;;1.58;100.00
50349;BME280;36250;48.740;22.174;2022-12-07T09:51:09;99990.75;;;1.59;100.00
50349;BME280;36250;48.740;22.174;2022-12-07T09:53:38;99990.75;;;1.59;100.00
50349;BME280;36250;48.740;22.174;2022-12-07T09:56:05;99991.97;;;1.55;100.00
50349;BME280;36250;48.740;22.174;2022-12-07T09:58:32;99990.34;;;1.54;100.00
50349;BME280;36250;48.740;22.174;2022-12-07T10:01:01;99984.69;;;1.49;100.00
50349;BME280;36250;48.740;22.174;2022-12-07T10:03:30;99979.47;;;1.49;100.00
50349;BME280;36250;48.740;22.174;2022-12-07T10:05:56;99974.25;;;1.49;100.00
50349;BME280;36250;48.740;22.174;2022-12-07T10:08:22;99983.59;;;1.51;100.00
50349;BME280;36250;48.740;22.174;2022-12-07T10:10:53;99984.56;;;1.50;100.00
50349;BME280;36250;48.740;22.174;2022-12-07T10:13:21;99982.50;;;1.54;100.00
50349;BME280;36250;48.740;22.174;2022-12-07T10:15:56;99987.16;;;1.60;100.00
50349;BME280;36250;48.740;22.174;2022-12-07T10:18:34;99978.09;;;1.64;100.00
50349;BME280;36250;48.740;22.174;2022-12-07T10:21:09;99979.75;;;1.65;100.00
50349;BME280;36250;48.740;22.174;2022-12-07T10:23:39;99984.28;;;1.63;100.00
50349;BME280;36250;48.740;22.174;2022-12-07T10:29:28;99964.22;;;1.64;100.00
50349;BME280;36250;48.740;22.174;2022-12-07T10:31:58;99960.50;;;1.66;100.00
50349;BME280;36250;48.740;22.174;2022-12-07T10:34:43;99964.47;;;1.70;100.00
50349;BME280;36250;48.740;22.174;2022-12-07T10:39:53;99965.16;;;1.72;100.00
50349;BME280;36250;48.740;22.174;2022-12-07T10:42:28;99963.13;;;1.76;100.00
50349;BME280;36250;48.740;22.174;2022-12-07T10:45:16;99972.44;;;1.79;100.00
50349;BME280;36250;48.740;22.174;2022-12-07T10:47:51;99959.09;;;1.82;100.00
50349;BME280;36250;48.740;22.174;2022-12-07T10:50:43;99965.72;;;1.86;100.00
50349;BME280;36250;48.740;22.174;2022-12-07T10:53:28;99964.47;;;1.90;100.00
50349;BME280;36250;48.740;22.174;2022-12-07T10:58:55;99961.19;;;1.88;100.00
50349;BME280;36250;48.740;22.174;2022-12-07T11:11:53;99959.25;;;1.90;100.00
50349;BME280;36250;48.740;22.174;2022-12-07T11:14:26;99957.16;;;1.94;100.00
50349;BME280;36250;48.740;22.174;2022-12-07T11:17:01;99950.69;;;1.98;100.00
50349;BME280;36250;48.740;22.174;2022-12-07T11:22:25;99940.50;;;2.05;100.00
50349;BME280;36250;48.740;22.174;2022-12-07T11:25:04;99944.19;;;2.12;100.00
50349;BME280;36250;48.740;22.174;2022-12-07T11:27:48;99939.66;;;2.14;100.00
50349;BME280;36250;48.740;22.174;2022-12-07T11:30:23;99941.19;;;2.16;100.00
50349;BME280;36250;48.740;22.174;2022-12-07T11:38:54;99946.00;;;2.11;100.00
50349;BME280;36250;48.740;22.174;2022-12-07T11:41:25;99947.50;;;2.14;100.00
50349;BME280;36250;48.740;22.174;2022-12-07T11:47:01;99953.84;;;2.11;100.00
50349;BME280;36250;48.740;22.174;2022-12-07T11:49:47;99949.44;;;2.12;100.00
50349;BME280;36250;48.740;22.174;2022-12-07T11:55:19;99947.38;;;2.15;100.00
50349;BME280;36250;48.740;22.174;2022-12-07T11:57:52;99946.69;;;2.13;100.00
50349;BME280;36250;48.740;22.174;2022-12-07T12:00:20;99946.81;;;2.12;100.00
50349;BME280;36250;48.740;22.174;2022-12-07T12:02:49;99944.50;;;2.09;100.00
50349;BME280;36250;48.740;22.174;2022-12-07T12:05:22;99940.50;;;2.14;100.00
50349;BME280;36250;48.740;22.174;2022-12-07T12:14:00;99943.88;;;2.25;100.00
50349;BME280;36250;48.740;22.174;2022-12-07T12:17:05;99938.53;;;2.26;100.00
50349;BME280;36250;48.740;22.174;2022-12-07T12:22:42;99938.25;;;2.29;100.00
50349;BME280;36250;48.740;22.174;2022-12-07T12:25:49;99936.44;;;2.30;100.00
50349;BME280;36250;48.740;22.174;2022-12-07T12:28:49;99940.41;;;2.34;100.00
50349;BME280;36250;48.740;22.174;2022-12-07T12:31:14;99941.38;;;2.33;100.00
50349;BME280;36250;48.740;22.174;2022-12-07T12:33:43;99931.09;;;2.31;100.00
50349;BME280;36250;48.740;22.174;2022-12-07T12:44:00;99929.84;;;2.36;100.00
50349;BME280;36250;48.740;22.174;2022-12-07T12:48:55;99936.69;;;2.37;100.00
50349;BME280;36250;48.740;22.174;2022-12-07T12:51:37;99927.91;;;2.38;100.00
50349;BME280;36250;48.740;22.174;2022-12-07T12:54:04;99931.19;;;2.40;100.00
50349;BME280;36250;48.740;22.174;2022-12-07T12:56:43;99928.41;;;2.41;100.00
50349;BME280;36250;48.740;22.174;2022-12-07T12:59:32;99926.63;;;2.42;100.00
50349;BME280;36250;48.740;22.174;2022-12-07T13:05:35;99929.94;;;2.44;100.00
50349;BME280;36250;48.740;22.174;2022-12-07T13:20:56;99937.47;;;2.47;100.00
50349;BME280;36250;48.740;22.174;2022-12-07T13:23:25;99940.78;;;2.49;100.00
50349;BME280;36250;48.740;22.174;2022-12-07T13:26:02;99945.19;;;2.49;100.00
50349;BME280;36250;48.740;22.174;2022-12-07T13:28:39;99945.88;;;2.51;100.00
50349;BME280;36250;48.740;22.174;2022-12-07T13:31:18;99935.94;;;2.54;100.00
50349;BME280;36250;48.740;22.174;2022-12-07T13:33:46;99939.22;;;2.56;100.00
50349;BME280;36250;48.740;22.174;2022-12-07T13:36:17;99937.06;;;2.52;100.00
50349;BME280;36250;48.740;22.174;2022-12-07T13:38:53;99931.09;;;2.59;100.00
50349;BME280;36250;48.740;22.174;2022-12-07T13:41:21;99931.75;;;2.61;100.00
50349;BME280;36250;48.740;22.174;2022-12-07T13:44:00;99927.22;;;2.64;100.00
50349;BME280;36250;48.740;22.174;2022-12-07T13:49:31;99926.66;;;2.70;100.00
50349;BME280;36250;48.740;22.174;2022-12-07T13:52:16;99926.19;;;2.74;100.00
50349;BME280;36250;48.740;22.174;2022-12-07T13:54:47;99924.25;;;2.77;100.00
50349;BME280;36250;48.740;22.174;2022-12-07T13:57:14;99929.06;;;2.81;100.00
50349;BME280;36250;48.740;22.174;2022-12-07T13:59:39;99934.00;;;2.84;100.00
50349;BME280;36250;48.740;22.174;2022-12-07T14:04:50;99935.34;;;2.88;100.00
50349;BME280;36250;48.740;22.174;2022-12-07T14:07:23;99936.97;;;2.89;100.00
50349;BME280;36250;48.740;22.174;2022-12-07T14:10:05;99939.78;;;2.88;100.00
50349;BME280;36250;48.740;22.174;2022-12-07T14:12:32;99939.09;;;2.86;100.00
50349;BME280;36250;48.740;22.174;2022-12-07T14:14:59;99935.50;;;2.87;100.00
50349;BME280;36250;48.740;22.174;2022-12-07T14:17:27;99938.78;;;2.89;100.00
50349;BME280;36250;48.740;22.174;2022-12-07T14:19:54;99931.91;;;2.88;100.00
50349;BME280;36250;48.740;22.174;2022-12-07T14:22:37;99935.22;;;2.90;100.00
50349;BME280;36250;48.740;22.174;2022-12-07T14:27:38;99935.22;;;2.90;100.00
50349;BME280;36250;48.740;22.174;2022-12-07T14:30:04;99934.38;;;2.89;100.00